sensor_id;sensor_type;location;lat;lon;timestamp;pressure;altitude;pressure_sealevel;temperature;humidity
63493;BME280;49638;47.526;10.028;2022-07-21T00:02:09;92158.56;;;19.76;71.68
63493;BME280;49638;47.526;10.028;2022-07-21T00:05:10;92151.88;;;19.73;71.65
63493;BME280;49638;47.526;10.028;2022-07-21T00:08:10;92157.34;;;19.68;71.90
63493;BME280;49638;47.526;10.028;2022-07-21T00:11:10;92147.19;;;19.65;71.82
63493;BME280;49638;47.526;10.028;2022-07-21T00:14:11;92145.34;;;19.60;72.42
63493;BME280;49638;47.526;10.028;2022-07-21T00:17:11;92152.28;;;19.61;72.54
63493;BME280;49638;47.526;10.028;2022-07-21T00:20:13;92155.03;;;19.56;72.70
63493;BME280;49638;47.526;10.028;2022-07-21T00:23:14;92158.53;;;19.57;73.15
63493;BME280;49638;47.526;10.028;2022-07-21T00:26:14;92163.59;;;19.58;73.69
63493;BME280;49638;47.526;10.028;2022-07-21T00:29:15;92171.34;;;19.60;73.95
63493;BME280;49638;47.526;10.028;2022-07-21T00:32:15;92154.00;;;19.52;74.30
63493;BME280;49638;47.526;10.028;2022-07-21T00:35:16;92166.56;;;19.57;74.75
63493;BME280;49638;47.526;10.028;2022-07-21T00:38:16;92176.47;;;19.56;74.86
63493;BME280;49638;47.526;10.028;2022-07-21T00:41:16;92192.84;;;19.55;74.95
63493;BME280;49638;47.526;10.028;2022-07-21T00:44:24;92192.50;;;19.61;76.53
63493;BME280;49638;47.526;10.028;2022-07-21T00:47:29;92193.28;;;19.67;74.51
63493;BME280;49638;47.526;10.028;2022-07-21T00:50:31;92198.66;;;19.67;74.54
63493;BME280;49638;47.526;10.028;2022-07-21T00:53:32;92204.50;;;19.69;74.37
63493;BME280;49638;47.526;10.028;2022-07-21T00:56:32;92212.28;;;19.71;74.45
63493;BME280;49638;47.526;10.028;2022-07-21T00:59:33;92198.66;;;19.67;74.64
63493;BME280;49638;47.526;10.028;2022-07-21T01:02:33;92192.63;;;19.75;74.71
63493;BME280;49638;47.526;10.028;2022-07-21T01:05:36;92189.91;;;19.80;75.04
63493;BME280;49638;47.526;10.028;2022-07-21T01:08:37;92201.69;;;19.79;75.99
63493;BME280;49638;47.526;10.028;2022-07-21T01:11:37;92192.84;;;19.79;76.14
63493;BME280;49638;47.526;10.028;2022-07-21T01:14:38;92179.22;;;19.75;76.21
63493;BME280;49638;47.526;10.028;2022-07-21T01:17:39;92163.28;;;19.65;76.89
63493;BME280;49638;47.526;10.028;2022-07-21T01:20:41;92171.53;;;19.69;77.37
63493;BME280;49638;47.526;10.028;2022-07-21T01:23:41;92179.53;;;19.50;78.53
63493;BME280;49638;47.526;10.028;2022-07-21T01:26:44;92201.19;;;19.53;79.58
63493;BME280;49638;47.526;10.028;2022-07-21T01:29:44;92189.50;;;19.44;80.46
63493;BME280;49638;47.526;10.028;2022-07-21T01:32:46;92194.84;;;19.44;80.33
63493;BME280;49638;47.526;10.028;2022-07-21T01:35:46;92190.28;;;19.45;80.84
63493;BME280;49638;47.526;10.028;2022-07-21T01:38:46;92194.06;;;19.44;80.54
63493;BME280;49638;47.526;10.028;2022-07-21T01:42:05;92189.53;;;19.39;80.97
63493;BME280;49638;47.526;10.028;2022-07-21T01:45:06;92199.91;;;19.46;81.31
63493;BME280;49638;47.526;10.028;2022-07-21T01:48:07;92186.28;;;19.42;81.26
63493;BME280;49638;47.526;10.028;2022-07-21T01:51:07;92188.94;;;19.47;81.45
63493;BME280;49638;47.526;10.028;2022-07-21T01:54:09;92197.47;;;19.49;81.98
63493;BME280;49638;47.526;10.028;2022-07-21T01:57:09;92191.09;;;19.45;81.68
63493;BME280;49638;47.526;10.028;2022-07-21T02:00:10;92186.28;;;19.42;81.87
63493;BME280;49638;47.526;10.028;2022-07-21T02:03:10;92185.03;;;19.34;82.28
63493;BME280;49638;47.526;10.028;2022-07-21T02:06:12;92195.72;;;19.40;82.41
63493;BME280;49638;47.526;10.028;2022-07-21T02:09:12;92194.41;;;19.37;82.37
63493;BME280;49638;47.526;10.028;2022-07-21T02:12:13;92176.25;;;19.29;82.35
63493;BME280;49638;47.526;10.028;2022-07-21T02:15:13;92185.38;;;19.28;82.60
63493;BME280;49638;47.526;10.028;2022-07-21T02:18:13;92196.31;;;19.31;82.98
63493;BME280;49638;47.526;10.028;2022-07-21T02:21:14;92204.94;;;19.28;82.56
63493;BME280;49638;47.526;10.028;2022-07-21T02:24:14;92198.03;;;19.22;82.84
63493;BME280;49638;47.526;10.028;2022-07-21T02:27:14;92199.41;;;19.20;82.86
63493;BME280;49638;47.526;10.028;2022-07-21T02:30:15;92193.84;;;19.11;83.05
63493;BME280;49638;47.526;10.028;2022-07-21T02:33:15;92191.19;;;19.11;83.11
63493;BME280;49638;47.526;10.028;2022-07-21T02:36:16;92197.09;;;19.08;83.60
63493;BME280;49638;47.526;10.028;2022-07-21T02:39:16;92200.56;;;19.08;83.86
63493;BME280;49638;47.526;10.028;2022-07-21T02:42:16;92199.78;;;19.08;84.01
63493;BME280;49638;47.526;10.028;2022-07-21T02:45:17;92202.47;;;19.08;83.71
63493;BME280;49638;47.526;10.028;2022-07-21T02:48:18;92203.03;;;19.05;83.97
63493;BME280;49638;47.526;10.028;2022-07-21T02:51:18;92192.63;;;18.98;83.76
63493;BME280;49638;47.526;10.028;2022-07-21T02:54:19;92212.94;;;19.04;84.07
63493;BME280;49638;47.526;10.028;2022-07-21T02:57:19;92192.88;;;19.02;84.40
63493;BME280;49638;47.526;10.028;2022-07-21T03:00:19;92185.44;;;18.94;84.24
63493;BME280;49638;47.526;10.028;2022-07-21T03:03:21;92202.28;;;18.99;84.39
63493;BME280;49638;47.526;10.028;2022-07-21T03:06:22;92202.31;;;18.94;84.41
63493;BME280;49638;47.526;10.028;2022-07-21T03:09:22;92209.03;;;18.91;84.38
63493;BME280;49638;47.526;10.028;2022-07-21T03:12:23;92215.69;;;18.99;84.39
63493;BME280;49638;47.526;10.028;2022-07-21T03:15:23;92194.56;;;18.93;84.62
63493;BME280;49638;47.526;10.028;2022-07-21T03:18:23;92194.03;;;18.96;84.94
63493;BME280;49638;47.526;10.028;2022-07-21T03:21:23;92218.59;;;19.03;85.33
63493;BME280;49638;47.526;10.028;2022-07-21T03:24:24;92216.97;;;19.02;85.11
63493;BME280;49638;47.526;10.028;2022-07-21T03:27:24;92223.41;;;19.01;85.31
63493;BME280;49638;47.526;10.028;2022-07-21T03:30:24;92223.41;;;19.01;85.38
63493;BME280;49638;47.526;10.028;2022-07-21T03:33:25;92226.63;;;19.03;85.47
63493;BME280;49638;47.526;10.028;2022-07-21T03:36:25;92222.41;;;18.97;86.00
63493;BME280;49638;47.526;10.028;2022-07-21T03:39:25;92218.34;;;18.99;85.88
63493;BME280;49638;47.526;10.028;2022-07-21T03:42:26;92217.59;;;18.94;86.09
63493;BME280;49638;47.526;10.028;2022-07-21T03:45:27;92229.56;;;19.01;86.02
63493;BME280;49638;47.526;10.028;2022-07-21T03:48:29;92231.47;;;19.01;85.82
63493;BME280;49638;47.526;10.028;2022-07-21T03:51:30;92227.19;;;19.00;85.55
63493;BME280;49638;47.526;10.028;2022-07-21T03:54:30;92215.22;;;18.92;85.83
63493;BME280;49638;47.526;10.028;2022-07-21T03:57:31;92226.66;;;18.98;85.80
63493;BME280;49638;47.526;10.028;2022-07-21T04:00:38;92233.09;;;18.97;86.95
63493;BME280;49638;47.526;10.028;2022-07-21T04:03:38;92230.44;;;18.97;85.98
63493;BME280;49638;47.526;10.028;2022-07-21T04:06:38;92238.22;;;18.93;85.96
63493;BME280;49638;47.526;10.028;2022-07-21T04:09:39;92231.84;;;18.89;86.03
63493;BME280;49638;47.526;10.028;2022-07-21T04:12:39;92240.63;;;18.95;86.24
63493;BME280;49638;47.526;10.028;2022-07-21T04:15:40;92237.19;;;18.89;86.11
63493;BME280;49638;47.526;10.028;2022-07-21T04:18:40;92244.38;;;18.94;86.09
63493;BME280;49638;47.526;10.028;2022-07-21T04:21:40;92239.81;;;18.94;86.02
63493;BME280;49638;47.526;10.028;2022-07-21T04:24:41;92234.22;;;18.90;86.22
63493;BME280;49638;47.526;10.028;2022-07-21T04:27:42;92248.38;;;18.96;86.46
63493;BME280;49638;47.526;10.028;2022-07-21T04:30:42;92235.56;;;18.93;86.40
63493;BME280;49638;47.526;10.028;2022-07-21T04:33:42;92245.72;;;18.96;86.63
63493;BME280;49638;47.526;10.028;2022-07-21T04:36:43;92238.47;;;18.97;86.69
63493;BME280;49638;47.526;10.028;2022-07-21T04:39:43;92240.06;;;18.98;86.49
63493;BME280;49638;47.526;10.028;2022-07-21T04:42:43;92240.84;;;18.98;86.40
63493;BME280;49638;47.526;10.028;2022-07-21T04:45:44;92235.25;;;18.95;86.76
63493;BME280;49638;47.526;10.028;2022-07-21T04:48:44;92242.47;;;18.99;86.66
63493;BME280;49638;47.526;10.028;2022-07-21T04:51:44;92232.63;;;18.89;86.42
63493;BME280;49638;47.526;10.028;2022-07-21T04:54:45;92244.34;;;18.99;86.66
63493;BME280;49638;47.526;10.028;2022-07-21T04:57:47;92246.72;;;19.00;86.73
63493;BME280;49638;47.526;10.028;2022-07-21T05:00:48;92248.63;;;19.00;86.43
63493;BME280;49638;47.526;10.028;2022-07-21T05:03:48;92243.06;;;18.91;86.53
63493;BME280;49638;47.526;10.028;2022-07-21T05:06:48;92245.16;;;18.94;86.55
63493;BME280;49638;47.526;10.028;2022-07-21T05:09:49;92256.13;;;18.98;86.69
63493;BME280;49638;47.526;10.028;2022-07-21T05:12:49;92252.72;;;18.92;86.47
63493;BME280;49638;47.526;10.028;2022-07-21T05:15:49;92265.19;;;19.02;86.35
63493;BME280;49638;47.526;10.028;2022-07-21T05:18:49;92264.38;;;19.06;86.11
63493;BME280;49638;47.526;10.028;2022-07-21T05:21:50;92263.00;;;19.09;85.97
63493;BME280;49638;47.526;10.028;2022-07-21T05:24:50;92258.16;;;19.11;85.27
63493;BME280;49638;47.526;10.028;2022-07-21T05:27:51;92262.19;;;19.08;85.02
63493;BME280;49638;47.526;10.028;2022-07-21T05:30:51;92263.28;;;19.07;84.95
63493;BME280;49638;47.526;10.028;2022-07-21T05:33:51;92264.59;;;19.10;85.19
63493;BME280;49638;47.526;10.028;2022-07-21T05:36:51;92268.84;;;19.16;85.06
63493;BME280;49638;47.526;10.028;2022-07-21T05:39:53;92265.63;;;19.14;84.62
63493;BME280;49638;47.526;10.028;2022-07-21T05:42:53;92263.81;;;19.09;84.49
63493;BME280;49638;47.526;10.028;2022-07-21T05:45:53;92266.72;;;19.13;84.12
63493;BME280;49638;47.526;10.028;2022-07-21T05:48:54;92261.41;;;19.08;83.65
63493;BME280;49638;47.526;10.028;2022-07-21T05:51:54;92260.84;;;19.11;83.92
63493;BME280;49638;47.526;10.028;2022-07-21T05:54:55;92256.59;;;19.05;83.89
63493;BME280;49638;47.526;10.028;2022-07-21T05:57:55;92270.53;;;19.07;83.62
63493;BME280;49638;47.526;10.028;2022-07-21T06:00:55;92274.28;;;19.06;83.61
63493;BME280;49638;47.526;10.028;2022-07-21T06:04:13;92269.72;;;19.06;83.91
63493;BME280;49638;47.526;10.028;2022-07-21T06:07:14;92251.78;;;19.02;83.66
63493;BME280;49638;47.526;10.028;2022-07-21T06:10:14;92263.00;;;19.09;83.33
63493;BME280;49638;47.526;10.028;2022-07-21T06:13:14;92270.22;;;19.08;83.29
63493;BME280;49638;47.526;10.028;2022-07-21T06:16:15;92269.44;;;19.08;83.61
63493;BME280;49638;47.526;10.028;2022-07-21T06:19:15;92268.09;;;19.05;82.87
63493;BME280;49638;47.526;10.028;2022-07-21T06:22:16;92274.28;;;19.06;83.21
63493;BME280;49638;47.526;10.028;2022-07-21T06:25:17;92284.19;;;19.05;83.16
63493;BME280;49638;47.526;10.028;2022-07-21T06:28:17;92281.25;;;19.07;83.56
63493;BME280;49638;47.526;10.028;2022-07-21T06:31:17;92293.28;;;19.09;83.16
63493;BME280;49638;47.526;10.028;2022-07-21T06:34:18;92282.31;;;19.06;83.11
63493;BME280;49638;47.526;10.028;2022-07-21T06:37:18;92291.09;;;19.11;82.68
63493;BME280;49638;47.526;10.028;2022-07-21T06:40:18;92302.59;;;19.17;82.62
63493;BME280;49638;47.526;10.028;2022-07-21T06:43:19;92295.34;;;19.18;82.25
63493;BME280;49638;47.526;10.028;2022-07-21T06:46:19;92291.31;;;19.20;81.89
63493;BME280;49638;47.526;10.028;2022-07-21T06:49:20;92286.97;;;19.24;82.30
63493;BME280;49638;47.526;10.028;2022-07-21T06:52:20;92290.41;;;19.30;82.58
63493;BME280;49638;47.526;10.028;2022-07-21T06:55:20;92286.88;;;19.34;82.31
63493;BME280;49638;47.526;10.028;2022-07-21T06:58:22;92276.97;;;19.35;82.19
63493;BME280;49638;47.526;10.028;2022-07-21T07:01:22;92292.44;;;19.43;82.26
63493;BME280;49638;47.526;10.028;2022-07-21T07:04:23;92298.31;;;19.45;81.86
63493;BME280;49638;47.526;10.028;2022-07-21T07:07:23;92296.16;;;19.47;81.62
63493;BME280;49638;47.526;10.028;2022-07-21T07:10:23;92300.50;;;19.43;81.44
63493;BME280;49638;47.526;10.028;2022-07-21T07:13:24;92313.31;;;19.46;81.32
63493;BME280;49638;47.526;10.028;2022-07-21T07:16:24;92315.19;;;19.46;81.23
63493;BME280;49638;47.526;10.028;2022-07-21T07:19:24;92318.09;;;19.49;81.42
63493;BME280;49638;47.526;10.028;2022-07-21T07:22:24;92311.94;;;19.49;81.20
63493;BME280;49638;47.526;10.028;2022-07-21T07:25:26;92315.94;;;19.51;80.87
63493;BME280;49638;47.526;10.028;2022-07-21T07:28:26;92315.41;;;19.49;80.86
63493;BME280;49638;47.526;10.028;2022-07-21T07:31:27;92323.69;;;19.53;80.74
63493;BME280;49638;47.526;10.028;2022-07-21T07:34:27;92324.44;;;19.58;80.67
63493;BME280;49638;47.526;10.028;2022-07-21T07:37:27;92326.31;;;19.63;80.75
63493;BME280;49638;47.526;10.028;2022-07-21T07:40:28;92322.97;;;19.76;79.94
63493;BME280;49638;47.526;10.028;2022-07-21T07:43:28;92317.22;;;19.88;79.42
63493;BME280;49638;47.526;10.028;2022-07-21T07:46:28;92324.63;;;19.96;79.00
63493;BME280;49638;47.526;10.028;2022-07-21T07:49:29;92326.41;;;20.06;79.21
63493;BME280;49638;47.526;10.028;2022-07-21T07:52:30;92312.41;;;20.09;79.07
63493;BME280;49638;47.526;10.028;2022-07-21T07:55:30;92325.75;;;20.14;79.31
63493;BME280;49638;47.526;10.028;2022-07-21T07:58:30;92323.38;;;20.13;79.73
63493;BME280;49638;47.526;10.028;2022-07-21T08:01:31;92331.50;;;20.07;79.85
63493;BME280;49638;47.526;10.028;2022-07-21T08:04:31;92330.97;;;20.05;80.03
63493;BME280;49638;47.526;10.028;2022-07-21T08:07:32;92329.38;;;20.04;79.83
63493;BME280;49638;47.526;10.028;2022-07-21T08:10:32;92314.34;;;20.03;79.85
63493;BME280;49638;47.526;10.028;2022-07-21T08:13:33;92318.69;;;19.99;79.45
63493;BME280;49638;47.526;10.028;2022-07-21T08:16:34;92328.84;;;20.02;79.19
63493;BME280;49638;47.526;10.028;2022-07-21T08:19:35;92329.44;;;19.99;79.34
63493;BME280;49638;47.526;10.028;2022-07-21T08:22:35;92326.75;;;19.99;79.10
63493;BME280;49638;47.526;10.028;2022-07-21T08:25:35;92327.28;;;20.01;78.99
63493;BME280;49638;47.526;10.028;2022-07-21T08:28:35;92327.94;;;20.12;79.01
63493;BME280;49638;47.526;10.028;2022-07-21T08:31:36;92334.84;;;20.18;78.94
63493;BME280;49638;47.526;10.028;2022-07-21T08:34:36;92334.28;;;20.21;78.89
63493;BME280;49638;47.526;10.028;2022-07-21T08:37:37;92341.13;;;20.32;78.29
63493;BME280;49638;47.526;10.028;2022-07-21T08:40:40;92333.53;;;20.40;77.88
63493;BME280;49638;47.526;10.028;2022-07-21T08:43:41;92333.13;;;20.51;77.85
63493;BME280;49638;47.526;10.028;2022-07-21T08:46:42;92322.31;;;20.57;77.60
63493;BME280;49638;47.526;10.028;2022-07-21T08:49:45;92341.72;;;20.72;77.50
63493;BME280;49638;47.526;10.028;2022-07-21T08:52:46;92337.84;;;20.78;77.56
63493;BME280;49638;47.526;10.028;2022-07-21T08:55:46;92337.00;;;20.83;76.74
63493;BME280;49638;47.526;10.028;2022-07-21T08:58:47;92345.28;;;20.87;76.31
63493;BME280;49638;47.526;10.028;2022-07-21T09:01:47;92343.09;;;20.89;76.40
63493;BME280;49638;47.526;10.028;2022-07-21T09:04:48;92350.56;;;20.92;76.53
63493;BME280;49638;47.526;10.028;2022-07-21T09:07:49;92342.81;;;20.90;76.36
63493;BME280;49638;47.526;10.028;2022-07-21T09:10:50;92336.69;;;20.85;76.30
63493;BME280;49638;47.526;10.028;2022-07-21T09:14:06;92350.34;;;20.88;77.05
63493;BME280;49638;47.526;10.028;2022-07-21T09:17:07;92347.19;;;20.86;75.79
63493;BME280;49638;47.526;10.028;2022-07-21T09:20:34;92347.88;;;20.92;72.91
63493;BME280;49638;47.526;10.028;2022-07-21T09:23:34;92345.72;;;20.94;75.57
63493;BME280;49638;47.526;10.028;2022-07-21T09:30:00;92340.78;;;21.01;74.98
63493;BME280;49638;47.526;10.028;2022-07-21T09:33:18;92342.50;;;21.11;75.59
63493;BME280;49638;47.526;10.028;2022-07-21T09:36:19;92342.63;;;21.19;74.81
63493;BME280;49638;47.526;10.028;2022-07-21T09:39:40;92335.72;;;21.32;74.10
63493;BME280;49638;47.526;10.028;2022-07-21T09:42:44;92332.88;;;21.42;74.30
63493;BME280;49638;47.526;10.028;2022-07-21T09:45:48;92335.41;;;21.53;73.94
63493;BME280;49638;47.526;10.028;2022-07-21T09:48:52;92322.09;;;21.61;73.32
63493;BME280;49638;47.526;10.028;2022-07-21T09:51:52;92333.69;;;21.76;73.13
63493;BME280;49638;47.526;10.028;2022-07-21T09:54:54;92326.81;;;21.83;72.35
63493;BME280;49638;47.526;10.028;2022-07-21T09:57:55;92336.50;;;21.98;71.68
63493;BME280;49638;47.526;10.028;2022-07-21T10:00:55;92325.16;;;22.01;71.35
63493;BME280;49638;47.526;10.028;2022-07-21T10:03:57;92331.53;;;22.05;70.84
63493;BME280;49638;47.526;10.028;2022-07-21T10:06:58;92327.22;;;22.04;70.61
63493;BME280;49638;47.526;10.028;2022-07-21T10:09:59;92315.78;;;22.12;71.26
63493;BME280;49638;47.526;10.028;2022-07-21T10:12:59;92337.03;;;22.28;71.39
63493;BME280;49638;47.526;10.028;2022-07-21T10:16:00;92333.34;;;22.24;70.23
63493;BME280;49638;47.526;10.028;2022-07-21T10:19:06;92334.16;;;22.24;68.27
63493;BME280;49638;47.526;10.028;2022-07-21T10:22:18;92323.16;;;22.20;67.38
63493;BME280;49638;47.526;10.028;2022-07-21T10:25:22;92323.84;;;22.12;69.12
63493;BME280;49638;47.526;10.028;2022-07-21T10:28:23;92316.66;;;22.08;69.21
63493;BME280;49638;47.526;10.028;2022-07-21T10:31:27;92318.91;;;22.19;69.23
63493;BME280;49638;47.526;10.028;2022-07-21T10:34:35;92321.47;;;22.25;67.73
63493;BME280;49638;47.526;10.028;2022-07-21T10:40:39;92325.88;;;22.20;68.50
63493;BME280;49638;47.526;10.028;2022-07-21T10:43:40;92322.50;;;22.15;68.13
63493;BME280;49638;47.526;10.028;2022-07-21T10:46:41;92315.47;;;22.14;68.54
63493;BME280;49638;47.526;10.028;2022-07-21T10:49:56;92318.19;;;22.28;67.03
63493;BME280;49638;47.526;10.028;2022-07-21T10:53:00;92322.97;;;22.31;68.98
63493;BME280;49638;47.526;10.028;2022-07-21T10:56:01;92325.97;;;22.29;68.83
63493;BME280;49638;47.526;10.028;2022-07-21T10:59:01;92327.75;;;22.34;68.46
63493;BME280;49638;47.526;10.028;2022-07-21T11:02:27;92317.19;;;22.37;66.12
63493;BME280;49638;47.526;10.028;2022-07-21T11:05:30;92323.69;;;22.23;68.24
63493;BME280;49638;47.526;10.028;2022-07-21T11:08:52;92314.09;;;22.16;67.94
63493;BME280;49638;47.526;10.028;2022-07-21T11:12:03;92318.31;;;22.23;67.09
63493;BME280;49638;47.526;10.028;2022-07-21T11:15:03;92312.81;;;22.28;68.11
63493;BME280;49638;47.526;10.028;2022-07-21T11:18:04;92309.63;;;22.39;68.06
63493;BME280;49638;47.526;10.028;2022-07-21T11:21:06;92301.13;;;22.46;67.73
63493;BME280;49638;47.526;10.028;2022-07-21T11:24:08;92298.31;;;22.51;68.12
63493;BME280;49638;47.526;10.028;2022-07-21T11:27:20;92292.22;;;22.59;68.16
63493;BME280;49638;47.526;10.028;2022-07-21T11:30:21;92287.03;;;22.63;67.55
63493;BME280;49638;47.526;10.028;2022-07-21T11:33:22;92299.59;;;22.67;67.41
63493;BME280;49638;47.526;10.028;2022-07-21T11:36:29;92296.88;;;22.67;65.95
63493;BME280;49638;47.526;10.028;2022-07-21T11:39:29;92286.25;;;22.62;67.30
63493;BME280;49638;47.526;10.028;2022-07-21T11:42:29;92268.59;;;22.56;67.61
63493;BME280;49638;47.526;10.028;2022-07-21T11:45:31;92285.81;;;22.69;67.55
63493;BME280;49638;47.526;10.028;2022-07-21T11:48:31;92287.81;;;22.63;67.34
63493;BME280;49638;47.526;10.028;2022-07-21T11:51:33;92286.75;;;22.51;66.85
63493;BME280;49638;47.526;10.028;2022-07-21T11:54:42;92286.56;;;22.47;65.77
63493;BME280;49638;47.526;10.028;2022-07-21T11:57:44;92276.38;;;22.44;67.11
63493;BME280;49638;47.526;10.028;2022-07-21T12:00:44;92283.13;;;22.55;67.18
63493;BME280;49638;47.526;10.028;2022-07-21T12:03:50;92271.38;;;22.51;65.16
63493;BME280;49638;47.526;10.028;2022-07-21T12:06:50;92280.56;;;22.50;66.22
63493;BME280;49638;47.526;10.028;2022-07-21T12:10:24;92281.56;;;22.40;59.79
63493;BME280;49638;47.526;10.028;2022-07-21T12:13:25;92279.06;;;22.44;64.51
63493;BME280;49638;47.526;10.028;2022-07-21T12:16:25;92266.59;;;22.48;64.46
63493;BME280;49638;47.526;10.028;2022-07-21T12:19:25;92271.38;;;22.51;63.92
63493;BME280;49638;47.526;10.028;2022-07-21T12:22:40;92279.03;;;22.58;61.71
63493;BME280;49638;47.526;10.028;2022-07-21T12:25:44;92269.38;;;22.57;63.24
63493;BME280;49638;47.526;10.028;2022-07-21T12:28:46;92279.16;;;22.53;63.20
63493;BME280;49638;47.526;10.028;2022-07-21T12:31:47;92277.88;;;22.50;63.96
63493;BME280;49638;47.526;10.028;2022-07-21T12:34:52;92283.16;;;22.41;62.26
63493;BME280;49638;47.526;10.028;2022-07-21T12:41:10;92275.41;;;22.26;63.24
63493;BME280;49638;47.526;10.028;2022-07-21T12:44:10;92279.09;;;22.16;63.42
63493;BME280;49638;47.526;10.028;2022-07-21T12:47:19;92277.41;;;22.20;64.39
63493;BME280;49638;47.526;10.028;2022-07-21T12:50:19;92276.81;;;22.24;64.05
63493;BME280;49638;47.526;10.028;2022-07-21T12:53:20;92280.00;;;22.26;64.03
63493;BME280;49638;47.526;10.028;2022-07-21T12:56:24;92276.22;;;22.27;64.04
63493;BME280;49638;47.526;10.028;2022-07-21T12:59:24;92275.00;;;22.33;64.14
63493;BME280;49638;47.526;10.028;2022-07-21T13:02:26;92276.19;;;22.40;63.83
63493;BME280;49638;47.526;10.028;2022-07-21T13:05:26;92277.38;;;22.48;63.85
63493;BME280;49638;47.526;10.028;2022-07-21T13:08:27;92273.19;;;22.56;64.03
63493;BME280;49638;47.526;10.028;2022-07-21T13:11:27;92270.97;;;22.58;64.03
63493;BME280;49638;47.526;10.028;2022-07-21T13:14:28;92274.75;;;22.57;63.46
63493;BME280;49638;47.526;10.028;2022-07-21T13:17:28;92253.13;;;22.48;63.32
63493;BME280;49638;47.526;10.028;2022-07-21T13:20:28;92251.72;;;22.51;63.38
63493;BME280;49638;47.526;10.028;2022-07-21T13:23:29;92262.00;;;22.62;63.54
63493;BME280;49638;47.526;10.028;2022-07-21T13:26:29;92252.19;;;22.66;63.34
63493;BME280;49638;47.526;10.028;2022-07-21T13:29:29;92253.00;;;22.67;63.21
63493;BME280;49638;47.526;10.028;2022-07-21T13:32:29;92248.53;;;22.62;63.17
63493;BME280;49638;47.526;10.028;2022-07-21T13:35:30;92238.41;;;22.68;62.94
63493;BME280;49638;47.526;10.028;2022-07-21T13:38:30;92248.16;;;22.78;63.11
63493;BME280;49638;47.526;10.028;2022-07-21T13:41:31;92248.94;;;22.78;62.85
63493;BME280;49638;47.526;10.028;2022-07-21T13:44:36;92255.97;;;22.79;62.78
63493;BME280;49638;47.526;10.028;2022-07-21T13:47:36;92255.31;;;22.82;62.26
63493;BME280;49638;47.526;10.028;2022-07-21T13:50:36;92243.56;;;22.78;61.42
63493;BME280;49638;47.526;10.028;2022-07-21T13:53:38;92250.34;;;22.76;61.28
63493;BME280;49638;47.526;10.028;2022-07-21T13:56:38;92244.13;;;22.66;61.27
63493;BME280;49638;47.526;10.028;2022-07-21T13:59:39;92242.91;;;22.73;61.16
63493;BME280;49638;47.526;10.028;2022-07-21T14:02:39;92240.50;;;22.71;61.51
63493;BME280;49638;47.526;10.028;2022-07-21T14:05:41;92246.38;;;22.73;61.42
63493;BME280;49638;47.526;10.028;2022-07-21T14:08:41;92248.91;;;22.70;61.07
63493;BME280;49638;47.526;10.028;2022-07-21T14:11:43;92242.22;;;22.67;61.14
63493;BME280;49638;47.526;10.028;2022-07-21T14:14:44;92239.94;;;22.60;61.39
63493;BME280;49638;47.526;10.028;2022-07-21T14:17:47;92238.22;;;22.64;61.32
63493;BME280;49638;47.526;10.028;2022-07-21T14:20:47;92235.53;;;22.64;61.44
63493;BME280;49638;47.526;10.028;2022-07-21T14:23:52;92234.22;;;22.62;61.04
63493;BME280;49638;47.526;10.028;2022-07-21T14:27:12;92230.19;;;22.51;61.03
63493;BME280;49638;47.526;10.028;2022-07-21T14:30:12;92237.66;;;22.54;60.92
63493;BME280;49638;47.526;10.028;2022-07-21T14:33:12;92235.28;;;22.52;60.64
63493;BME280;49638;47.526;10.028;2022-07-21T14:36:13;92224.50;;;22.52;60.62
63493;BME280;49638;47.526;10.028;2022-07-21T14:39:14;92233.56;;;22.56;60.81
63493;BME280;49638;47.526;10.028;2022-07-21T14:42:16;92227.25;;;22.61;60.45
63493;BME280;49638;47.526;10.028;2022-07-21T14:45:17;92226.66;;;22.64;60.56
63493;BME280;49638;47.526;10.028;2022-07-21T14:48:18;92229.03;;;22.65;60.78
63493;BME280;49638;47.526;10.028;2022-07-21T14:51:18;92227.44;;;22.64;60.65
63493;BME280;49638;47.526;10.028;2022-07-21T14:54:18;92217.47;;;22.65;60.69
63493;BME280;49638;47.526;10.028;2022-07-21T14:57:19;92211.59;;;22.63;61.06
63493;BME280;49638;47.526;10.028;2022-07-21T15:00:20;92218.06;;;22.62;61.18
63493;BME280;49638;47.526;10.028;2022-07-21T15:03:20;92219.38;;;22.64;61.14
63493;BME280;49638;47.526;10.028;2022-07-21T15:06:21;92217.97;;;22.67;60.93
63493;BME280;49638;47.526;10.028;2022-07-21T15:09:21;92211.66;;;22.72;61.01
63493;BME280;49638;47.526;10.028;2022-07-21T15:12:22;92199.09;;;22.67;60.80
63493;BME280;49638;47.526;10.028;2022-07-21T15:15:22;92211.84;;;22.75;60.33
63493;BME280;49638;47.526;10.028;2022-07-21T15:18:23;92205.03;;;22.78;60.25
63493;BME280;49638;47.526;10.028;2022-07-21T15:21:23;92206.81;;;22.82;60.41
63493;BME280;49638;47.526;10.028;2022-07-21T15:24:23;92207.50;;;22.88;60.52
63493;BME280;49638;47.526;10.028;2022-07-21T15:27:24;92214.19;;;22.90;60.18
63493;BME280;49638;47.526;10.028;2022-07-21T15:30:24;92214.41;;;22.94;60.32
63493;BME280;49638;47.526;10.028;2022-07-21T15:33:25;92210.28;;;22.97;59.88
63493;BME280;49638;47.526;10.028;2022-07-21T15:36:25;92204.97;;;22.91;60.17
63493;BME280;49638;47.526;10.028;2022-07-21T15:39:26;92203.00;;;22.97;59.90
63493;BME280;49638;47.526;10.028;2022-07-21T15:42:26;92203.00;;;22.97;60.07
63493;BME280;49638;47.526;10.028;2022-07-21T15:45:28;92204.75;;;23.02;59.88
63493;BME280;49638;47.526;10.028;2022-07-21T15:48:30;92201.78;;;23.03;59.76
63493;BME280;49638;47.526;10.028;2022-07-21T15:51:31;92207.78;;;23.00;59.82
63493;BME280;49638;47.526;10.028;2022-07-21T15:54:32;92205.56;;;23.02;59.65
63493;BME280;49638;47.526;10.028;2022-07-21T15:57:32;92190.81;;;23.00;59.46
63493;BME280;49638;47.526;10.028;2022-07-21T16:00:35;92198.09;;;22.99;59.42